createdAt,value
2023-05-10T00:00:01.208Z,100433.72
2023-05-10T00:00:13.933Z,100434.75
2023-05-10T00:00:26.306Z,100430.59
2023-05-10T00:00:37.994Z,100434.09
2023-05-10T00:00:49.736Z,100431.63
2023-05-10T00:01:01.408Z,100430.78
2023-05-10T00:01:13.048Z,100429.13
2023-05-10T00:01:24.814Z,100430.97
2023-05-10T00:01:36.615Z,100428.31
2023-05-10T00:01:48.389Z,100434.69
2023-05-10T00:02:00.137Z,100434.69
2023-05-10T00:02:11.989Z,100432.19
2023-05-10T00:02:23.838Z,100427.88
2023-05-10T00:02:35.721Z,100427.03
2023-05-10T00:02:47.689Z,100428.88
2023-05-10T00:02:59.519Z,100429.91
2023-05-10T00:03:11.401Z,100429.09
2023-05-10T00:03:23.295Z,100431.78
2023-05-10T00:03:35.090Z,100438.13
2023-05-10T00:03:46.895Z,100429.28
2023-05-10T00:03:58.730Z,100429.28
2023-05-10T00:04:10.381Z,100427.59
2023-05-10T00:04:22.116Z,100425.78
2023-05-10T00:04:34.009Z,100426.78
2023-05-10T00:04:45.639Z,100429.47
2023-05-10T00:04:57.247Z,100432.97
2023-05-10T00:05:09.265Z,100433.19
2023-05-10T00:05:21.204Z,100427.81
2023-05-10T00:05:33.055Z,100427.81
2023-05-10T00:05:44.816Z,100432.31
2023-05-10T00:05:56.508Z,100427.19
2023-05-10T00:06:08.313Z,100425.34
2023-05-10T00:06:20.049Z,100425.34
2023-05-10T00:06:31.737Z,100431.50
2023-05-10T00:06:43.421Z,100427.19
2023-05-10T00:06:55.169Z,100428.19
2023-05-10T00:07:06.907Z,100425.50
2023-05-10T00:07:19.867Z,100427.75
2023-05-10T00:07:31.640Z,100432.72
2023-05-10T00:07:43.323Z,100430.03
2023-05-10T00:07:54.963Z,100431.06
2023-05-10T00:08:06.555Z,100430.19
2023-05-10T00:08:18.542Z,100424.84
2023-05-10T00:08:30.236Z,100431.22
2023-05-10T00:08:42.080Z,100425.06
2023-05-10T00:08:53.771Z,100424.25
2023-05-10T00:09:05.441Z,100427.91
2023-05-10T00:09:17.233Z,100429.78
2023-05-10T00:09:28.957Z,100421.75
2023-05-10T00:09:40.658Z,100432.44
2023-05-10T00:09:52.263Z,100427.28
2023-05-10T00:10:04.399Z,100421.94
2023-05-10T00:10:16.268Z,100424.59
2023-05-10T00:10:28.144Z,100431.00
2023-05-10T00:10:39.900Z,100424.81
2023-05-10T00:10:51.669Z,100421.50
2023-05-10T00:11:03.380Z,100425.81
2023-05-10T00:11:15.050Z,100426.84
2023-05-10T00:11:26.766Z,100420.66
2023-05-10T00:11:38.542Z,100422.50
2023-05-10T00:11:50.238Z,100429.72
2023-05-10T00:12:01.902Z,100420.88
2023-05-10T00:12:13.600Z,100421.06
2023-05-10T00:12:25.285Z,100426.41
2023-05-10T00:12:36.932Z,100420.41
2023-05-10T00:12:48.589Z,100424.13
2023-05-10T00:13:00.362Z,100420.63
2023-05-10T00:13:12.044Z,100424.94
2023-05-10T00:13:23.901Z,100423.50
2023-05-10T00:13:35.670Z,100423.31
2023-05-10T00:13:47.462Z,100424.31
2023-05-10T00:13:59.110Z,100422.66
2023-05-10T00:14:10.861Z,100425.34
2023-05-10T00:14:22.575Z,100421.81
2023-05-10T00:14:34.285Z,100421.00
2023-05-10T00:14:46.043Z,100433.38
2023-05-10T00:14:57.741Z,100417.50
2023-05-10T00:15:10.216Z,100422.03
2023-05-10T00:15:22.108Z,100422.84
2023-05-10T00:15:33.778Z,100428.19
2023-05-10T00:15:45.557Z,100431.88
2023-05-10T00:15:57.237Z,100428.38
2023-05-10T00:16:08.940Z,100422.22
2023-05-10T00:16:20.651Z,100426.75
2023-05-10T00:16:32.426Z,100424.88
2023-05-10T00:16:44.123Z,100420.56
2023-05-10T00:16:55.860Z,100420.56
2023-05-10T00:17:07.532Z,100429.59
2023-05-10T00:17:19.175Z,100421.56
2023-05-10T00:17:30.883Z,100427.75
2023-05-10T00:17:42.641Z,100426.94
2023-05-10T00:17:54.352Z,100430.41
2023-05-10T00:18:06.370Z,100429.41
2023-05-10T00:18:18.070Z,100430.25
2023-05-10T00:18:29.691Z,100425.06
2023-05-10T00:18:41.469Z,100426.09
2023-05-10T00:18:53.109Z,100424.25
2023-05-10T00:19:04.795Z,100423.44
2023-05-10T00:19:16.948Z,100427.75
2023-05-10T00:19:28.710Z,100427.56
2023-05-10T00:19:40.342Z,100426.53
2023-05-10T00:19:51.984Z,100428.38
2023-05-10T00:20:04.156Z,100426.75
2023-05-10T00:20:16.108Z,100423.25
2023-05-10T00:20:28.163Z,100427.75
2023-05-10T00:20:39.828Z,100425.91
2023-05-10T00:20:51.755Z,100427.75
2023-05-10T00:21:03.717Z,100426.09
2023-05-10T00:21:15.364Z,100425.28
2023-05-10T00:21:27.183Z,100428.13
2023-05-10T00:21:38.905Z,100424.44
2023-05-10T00:21:50.516Z,100419.06
2023-05-10T00:22:02.204Z,100427.09
2023-05-10T00:22:13.825Z,100419.28
2023-05-10T00:22:26.924Z,100426.50
2023-05-10T00:22:38.656Z,100420.28
2023-05-10T00:22:50.322Z,100421.16
2023-05-10T00:23:01.980Z,100421.16
2023-05-10T00:23:13.702Z,100426.50
2023-05-10T00:23:25.360Z,100420.28
2023-05-10T00:23:37.085Z,100421.16
2023-05-10T00:23:48.748Z,100417.84
2023-05-10T00:24:00.484Z,100425.66
2023-05-10T00:24:12.133Z,100415.97
2023-05-10T00:24:23.849Z,100425.84
2023-05-10T00:24:35.593Z,100419.88
2023-05-10T00:24:47.293Z,100420.69
2023-05-10T00:24:59.198Z,100423.38
2023-05-10T00:25:10.904Z,100422.53
2023-05-10T00:25:22.730Z,100420.06
2023-05-10T00:25:34.516Z,100420.22
2023-05-10T00:25:46.243Z,100417.56
2023-05-10T00:25:57.885Z,100423.75
2023-05-10T00:26:09.546Z,100415.09
2023-05-10T00:26:23.066Z,100422.09
2023-05-10T00:26:38.290Z,100426.63
2023-05-10T00:26:50.194Z,100420.44
2023-05-10T00:27:01.873Z,100422.31
2023-05-10T00:27:13.578Z,100423.31
2023-05-10T00:27:25.419Z,100415.47
2023-05-10T00:27:37.213Z,100414.63
2023-05-10T00:27:48.922Z,100419.16
2023-05-10T00:28:00.572Z,100421.66
2023-05-10T00:28:12.265Z,100419.97
2023-05-10T00:28:24.234Z,100423.69
2023-05-10T00:28:35.919Z,100427.38
2023-05-10T00:28:48.262Z,100419.34
2023-05-10T00:28:59.957Z,100422.88
2023-05-10T00:29:11.659Z,100421.03
2023-05-10T00:29:23.328Z,100422.88
2023-05-10T00:29:35.086Z,100417.69
2023-05-10T00:29:46.724Z,100424.69
2023-05-10T00:29:58.468Z,100416.03
2023-05-10T00:30:10.500Z,100418.72
2023-05-10T00:30:22.311Z,100418.72
2023-05-10T00:30:34.043Z,100413.34
2023-05-10T00:30:47.058Z,100421.59
2023-05-10T00:30:58.818Z,100426.94
2023-05-10T00:31:10.418Z,100422.41
2023-05-10T00:31:22.162Z,100415.41
2023-05-10T00:31:34.103Z,100422.59
2023-05-10T00:31:45.872Z,100417.25
2023-05-10T00:31:57.617Z,100421.78
2023-05-10T00:32:09.425Z,100418.28
2023-05-10T00:32:21.350Z,100417.47
2023-05-10T00:32:33.206Z,100417.63
2023-05-10T00:32:44.943Z,100414.16
2023-05-10T00:32:56.659Z,100419.50
2023-05-10T00:33:08.469Z,100417.81
2023-05-10T00:33:20.223Z,100416.19
2023-05-10T00:33:31.893Z,100418.84
2023-05-10T00:33:43.599Z,100418.03
2023-05-10T00:33:55.644Z,100419.84
2023-05-10T00:34:07.307Z,100412.69
2023-05-10T00:34:18.938Z,100422.91
2023-05-10T00:34:30.596Z,100413.69
2023-05-10T00:34:42.283Z,100417.19
2023-05-10T00:34:53.948Z,100407.69
2023-05-10T00:35:06.301Z,100414.72
2023-05-10T00:35:18.160Z,100420.06
2023-05-10T00:35:29.814Z,100413.88
2023-05-10T00:35:41.519Z,100418.22
2023-05-10T00:35:54.589Z,100418.38
2023-05-10T00:36:07.084Z,100416.75
2023-05-10T00:36:18.724Z,100416.75
2023-05-10T00:36:30.425Z,100419.41
2023-05-10T00:36:42.126Z,100413.44
2023-05-10T00:36:53.786Z,100416.09
2023-05-10T00:37:05.482Z,100416.09
2023-05-10T00:37:18.447Z,100413.63
2023-05-10T00:37:31.437Z,100410.28
2023-05-10T00:37:43.112Z,100411.75
2023-05-10T00:37:54.804Z,100413.63
2023-05-10T00:38:06.412Z,100409.28
2023-05-10T00:38:18.059Z,100415.47
2023-05-10T00:38:29.730Z,100413.81
2023-05-10T00:38:41.935Z,100412.78
2023-05-10T00:38:53.619Z,100417.31
2023-05-10T00:39:05.426Z,100414.81
2023-05-10T00:39:17.182Z,100415.66
2023-05-10T00:39:29.911Z,100421.00
2023-05-10T00:39:41.601Z,100422.66
2023-05-10T00:39:53.281Z,100416.50
2023-05-10T00:40:06.313Z,100412.16
2023-05-10T00:40:18.358Z,100412.16
2023-05-10T00:40:36.348Z,100414.81
2023-05-10T00:40:50.495Z,100418.53
2023-05-10T00:41:09.978Z,100415.00
2023-05-10T00:41:23.791Z,100419.53
2023-05-10T00:41:35.577Z,100416.03
2023-05-10T00:41:49.271Z,100407.19
2023-05-10T00:42:02.006Z,100412.72
2023-05-10T00:42:13.994Z,100413.38
2023-05-10T00:42:26.416Z,100413.38
2023-05-10T00:42:39.733Z,100412.53
2023-05-10T00:42:52.496Z,100415.22
2023-05-10T00:43:04.250Z,100411.69
2023-05-10T00:43:15.953Z,100417.03
2023-05-10T00:43:27.738Z,100411.91
2023-05-10T00:43:39.430Z,100412.72
2023-05-10T00:43:51.161Z,100418.88
2023-05-10T00:44:02.896Z,100413.75
2023-05-10T00:44:14.741Z,100411.09
2023-05-10T00:44:26.453Z,100417.25
2023-05-10T00:44:38.198Z,100410.03
2023-05-10T00:44:51.094Z,100409.41
2023-05-10T00:45:02.851Z,100412.06
2023-05-10T00:45:15.356Z,100418.06
2023-05-10T00:45:27.204Z,100415.41
2023-05-10T00:45:40.960Z,100414.19
2023-05-10T00:45:53.567Z,100414.38
2023-05-10T00:46:05.836Z,100420.56
2023-05-10T00:46:17.876Z,100424.22
2023-05-10T00:46:29.873Z,100413.53
2023-05-10T00:46:42.348Z,100414.38
2023-05-10T00:46:54.974Z,100423.41
2023-05-10T00:47:06.850Z,100421.56
2023-05-10T00:47:18.694Z,100417.25
2023-05-10T00:47:30.633Z,100411.91
2023-05-10T00:47:42.423Z,100414.56
2023-05-10T00:47:54.248Z,100416.44
2023-05-10T00:48:06.636Z,100418.06
2023-05-10T00:48:18.413Z,100416.44
2023-05-10T00:48:30.691Z,100418.88
2023-05-10T00:48:42.797Z,100419.91
2023-05-10T00:48:54.927Z,100419.91
2023-05-10T00:49:06.957Z,100418.25
2023-05-10T00:49:18.873Z,100415.78
2023-05-10T00:49:30.929Z,100417.59
2023-05-10T00:49:42.719Z,100417.59
2023-05-10T00:49:54.623Z,100418.47
2023-05-10T00:50:07.589Z,100417.00
2023-05-10T00:50:19.494Z,100415.97
2023-05-10T00:50:32.222Z,100414.31
2023-05-10T00:50:43.973Z,100415.31
2023-05-10T00:50:55.779Z,100415.31
2023-05-10T00:51:07.505Z,100418.00
2023-05-10T00:51:19.452Z,100417.34
2023-05-10T00:51:31.421Z,100419.84
2023-05-10T00:51:43.134Z,100418.16
2023-05-10T00:51:55.356Z,100417.16
2023-05-10T00:52:07.296Z,100418.16
2023-05-10T00:52:19.134Z,100418.16
2023-05-10T00:52:32.472Z,100417.34
2023-05-10T00:52:44.584Z,100411.38
2023-05-10T00:52:56.436Z,100411.38
2023-05-10T00:53:09.099Z,100417.56
2023-05-10T00:53:20.862Z,100412.41
2023-05-10T00:53:32.857Z,100414.25
2023-05-10T00:53:46.324Z,100418.56
2023-05-10T00:53:58.241Z,100416.06
2023-05-10T00:54:10.851Z,100422.25
2023-05-10T00:54:22.616Z,100413.41
2023-05-10T00:54:34.549Z,100416.28
2023-05-10T00:54:47.195Z,100410.94
2023-05-10T00:54:59.049Z,100412.78
2023-05-10T00:55:12.470Z,100410.94
2023-05-10T00:55:24.532Z,100413.59
2023-05-10T00:55:36.537Z,100408.44
2023-05-10T00:55:48.316Z,100419.78
2023-05-10T00:56:00.459Z,100412.97
2023-05-10T00:56:12.584Z,100411.09
2023-05-10T00:56:24.313Z,100411.28
2023-05-10T00:56:36.552Z,100409.47
2023-05-10T00:56:48.250Z,100407.78
2023-05-10T00:57:00.185Z,100412.31
2023-05-10T00:57:12.112Z,100408.81
2023-05-10T00:57:23.996Z,100408.00
2023-05-10T00:57:35.774Z,100410.69
2023-05-10T00:57:48.140Z,100414.34
2023-05-10T00:57:59.894Z,100415.16
2023-05-10T00:58:11.634Z,100405.50
2023-05-10T00:58:23.305Z,100413.34
2023-05-10T00:58:35.037Z,100407.16
2023-05-10T00:58:46.726Z,100409.81
2023-05-10T00:58:58.557Z,100410.69
2023-05-10T00:59:10.475Z,100404.69
2023-05-10T00:59:22.189Z,100413.34
2023-05-10T00:59:34.157Z,100406.34
2023-05-10T00:59:46.634Z,100408.34
2023-05-10T00:59:58.999Z,100403.66
2023-05-10T01:00:11.957Z,100406.50
2023-05-10T01:00:23.674Z,100411.69
2023-05-10T01:00:36.528Z,100406.34
2023-05-10T01:00:48.954Z,100409.00
2023-05-10T01:01:02.359Z,100411.69
2023-05-10T01:01:14.571Z,100409.00
2023-05-10T01:01:26.368Z,100411.69
2023-05-10T01:01:38.752Z,100406.34
2023-05-10T01:01:50.685Z,100409.19
2023-05-10T01:02:02.756Z,100409.19
2023-05-10T01:02:15.202Z,100408.19
2023-05-10T01:02:27.023Z,100409.19
2023-05-10T01:02:39.261Z,100405.50
2023-05-10T01:02:51.154Z,100404.03
2023-05-10T01:03:03.810Z,100411.03
2023-05-10T01:03:15.690Z,100409.38
2023-05-10T01:03:27.530Z,100414.72
2023-05-10T01:03:41.022Z,100403.41
2023-05-10T01:03:53.206Z,100411.22
2023-05-10T01:04:05.137Z,100407.53
2023-05-10T01:04:16.804Z,100413.69
2023-05-10T01:04:28.683Z,100405.03
2023-05-10T01:04:40.491Z,100405.88
2023-05-10T01:04:52.513Z,100409.56
2023-05-10T01:05:04.969Z,100402.38
2023-05-10T01:05:16.853Z,100403.41
2023-05-10T01:05:28.706Z,100401.56
2023-05-10T01:05:40.408Z,100416.56
2023-05-10T01:05:52.099Z,100406.91
2023-05-10T01:06:04.123Z,100405.03
2023-05-10T01:06:15.824Z,100403.41
2023-05-10T01:06:27.716Z,100405.25
2023-05-10T01:06:39.385Z,100412.25
2023-05-10T01:06:51.068Z,100405.03
2023-05-10T01:07:03.090Z,100405.03
2023-05-10T01:07:14.767Z,100402.38
2023-05-10T01:07:26.464Z,100405.03
2023-05-10T01:07:40.574Z,100406.06
2023-05-10T01:07:52.219Z,100405.03
2023-05-10T01:08:04.053Z,100406.06
2023-05-10T01:08:15.894Z,100406.06
2023-05-10T01:08:28.701Z,100398.06
2023-05-10T01:08:41.552Z,100402.59
2023-05-10T01:08:53.220Z,100408.75
2023-05-10T01:09:04.960Z,100406.06
2023-05-10T01:09:16.666Z,100405.25
2023-05-10T01:09:29.662Z,100407.94
2023-05-10T01:09:41.445Z,100408.75
2023-05-10T01:09:53.128Z,100405.25
2023-05-10T01:10:05.395Z,100410.59
2023-05-10T01:10:17.398Z,100403.41
2023-05-10T01:10:29.746Z,100402.94
2023-05-10T01:10:42.154Z,100401.72
2023-05-10T01:10:54.475Z,100398.41
2023-05-10T01:11:06.292Z,100404.59
2023-05-10T01:11:17.995Z,100408.09
2023-05-10T01:11:29.697Z,100407.28
2023-05-10T01:11:41.435Z,100404.59
2023-05-10T01:11:54.011Z,100404.59
2023-05-10T01:12:06.515Z,100402.94
2023-05-10T01:12:18.348Z,100404.78
2023-05-10T01:12:30.314Z,100410.13
2023-05-10T01:12:45.241Z,100398.63
2023-05-10T01:12:57.218Z,100410.13
2023-05-10T01:13:09.086Z,100403.16
2023-05-10T01:13:32.280Z,100408.66
2023-05-10T01:13:51.762Z,100405.81
2023-05-10T01:14:04.119Z,100408.50
2023-05-10T01:14:17.582Z,100402.28
2023-05-10T01:14:30.050Z,100411.16
2023-05-10T01:14:41.803Z,100408.66
2023-05-10T01:14:54.276Z,100411.34
2023-05-10T01:15:07.958Z,100404.97
2023-05-10T01:15:21.534Z,100406.81
2023-05-10T01:15:33.357Z,100410.31
2023-05-10T01:15:46.118Z,100411.97
2023-05-10T01:15:58.684Z,100413.84
2023-05-10T01:16:10.366Z,100410.31
2023-05-10T01:16:22.083Z,100406.81
2023-05-10T01:16:37.279Z,100414.00
2023-05-10T01:16:50.307Z,100406.81
2023-05-10T01:17:02.380Z,100401.28
2023-05-10T01:17:14.634Z,100404.97
2023-05-10T01:17:27.277Z,100409.50
2023-05-10T01:17:41.694Z,100403.16
2023-05-10T01:17:54.361Z,100403.16
2023-05-10T01:18:06.281Z,100407.63
2023-05-10T01:18:21.708Z,100409.50
2023-05-10T01:18:35.845Z,100407.63
2023-05-10T01:18:48.046Z,100405.81
2023-05-10T01:19:00.043Z,100403.16
2023-05-10T01:19:17.950Z,100404.16
2023-05-10T01:19:31.935Z,100398.81
2023-05-10T01:19:43.672Z,100404.16
2023-05-10T01:19:55.719Z,100410.31
2023-05-10T01:20:09.388Z,100403.31
2023-05-10T01:20:23.130Z,100405.19
2023-05-10T01:20:44.072Z,100402.28
2023-05-10T01:21:17.671Z,100403.31
2023-05-10T01:21:38.966Z,100398.81
2023-05-10T01:22:00.344Z,100406.81
2023-05-10T01:22:30.207Z,100402.28
2023-05-10T01:23:07.439Z,100396.94
2023-05-10T01:23:43.953Z,100401.47
2023-05-10T01:24:34.398Z,100403.16
2023-05-10T01:25:09.619Z,100404.78
2023-05-10T01:25:38.856Z,100395.94
2023-05-10T01:26:21.387Z,100409.09
2023-05-10T01:27:00.716Z,100396.78
2023-05-10T01:27:34.263Z,100401.72
2023-05-10T01:28:22.480Z,100401.56
2023-05-10T01:28:52.428Z,100401.72
2023-05-10T01:29:19.773Z,100399.53
2023-05-10T01:30:14.266Z,100407.53
2023-05-10T01:30:56.792Z,100396.03
2023-05-10T01:31:22.944Z,100404.69
2023-05-10T01:31:57.056Z,100402.84
2023-05-10T01:32:31.868Z,100397.50
2023-05-10T01:32:51.950Z,100403.66
2023-05-10T01:33:11.882Z,100400.00
2023-05-10T01:33:31.145Z,100403.47
2023-05-10T01:33:47.885Z,100394.44
2023-05-10T01:34:07.967Z,100398.13
2023-05-10T01:34:26.632Z,100396.28
2023-05-10T01:34:48.497Z,100402.66
2023-05-10T01:35:05.658Z,100394.66
2023-05-10T01:35:23.927Z,100403.47
2023-05-10T01:35:41.077Z,100396.28
2023-05-10T01:36:02.179Z,100400.81
2023-05-10T01:36:20.315Z,100399.78
2023-05-10T01:36:36.000Z,100405.13
2023-05-10T01:36:52.328Z,100402.44
2023-05-10T01:37:09.969Z,100400.59
2023-05-10T01:37:29.943Z,100397.09
2023-05-10T01:37:44.299Z,100400.59
2023-05-10T01:38:02.766Z,100391.75
2023-05-10T01:38:19.715Z,100394.44
2023-05-10T01:38:39.155Z,100397.94
2023-05-10T01:38:54.109Z,100395.25
2023-05-10T01:39:16.632Z,100397.09
2023-05-10T01:39:37.715Z,100400.59
2023-05-10T01:39:55.961Z,100402.44
2023-05-10T01:40:17.440Z,100396.28
2023-05-10T01:40:33.407Z,100405.13
2023-05-10T01:40:57.990Z,100397.09
2023-05-10T01:41:17.826Z,100400.59
2023-05-10T01:41:37.675Z,100394.44
2023-05-10T01:41:55.458Z,100400.59
2023-05-10T01:42:11.323Z,100402.44
2023-05-10T01:42:26.916Z,100394.44
2023-05-10T01:42:47.657Z,100395.06
2023-05-10T01:43:03.894Z,100393.44
2023-05-10T01:43:20.864Z,100399.59
2023-05-10T01:43:41.597Z,100399.59
2023-05-10T01:44:00.361Z,100399.59
2023-05-10T01:44:19.204Z,100402.28
2023-05-10T01:44:36.631Z,100400.59
2023-05-10T01:44:58.830Z,100395.25
2023-05-10T01:45:19.246Z,100396.75
2023-05-10T01:45:34.841Z,100393.22
2023-05-10T01:45:55.629Z,100399.41
2023-05-10T01:46:11.889Z,100395.72
2023-05-10T01:46:30.765Z,100391.41
2023-05-10T01:46:42.611Z,100392.22
2023-05-10T01:47:02.449Z,100406.41
2023-05-10T01:47:17.960Z,100402.09
2023-05-10T01:47:38.333Z,100398.56
2023-05-10T01:47:59.525Z,100395.72
2023-05-10T01:48:12.699Z,100400.25
2023-05-10T01:48:27.245Z,100402.91
2023-05-10T01:48:42.990Z,100400.25
2023-05-10T01:48:58.126Z,100398.38
2023-05-10T01:49:14.775Z,100400.25
2023-05-10T01:49:31.803Z,100398.38
2023-05-10T01:49:48.577Z,100391.19
2023-05-10T01:50:04.278Z,100400.25
2023-05-10T01:50:19.182Z,100399.22
2023-05-10T01:50:32.744Z,100399.22
2023-05-10T01:50:46.403Z,100398.38
2023-05-10T01:50:59.092Z,100400.25
2023-05-10T01:51:12.342Z,100402.69
2023-05-10T01:51:25.971Z,100399.41
2023-05-10T01:51:45.670Z,100393.03
2023-05-10T01:52:04.956Z,100396.53
2023-05-10T01:52:19.592Z,100403.56
2023-05-10T01:52:35.500Z,100399.84
2023-05-10T01:52:52.408Z,100397.19
2023-05-10T01:53:07.590Z,100399.84
2023-05-10T01:53:21.246Z,100396.34
2023-05-10T01:53:34.714Z,100398.00
2023-05-10T01:53:48.885Z,100402.53
2023-05-10T01:54:04.887Z,100398.84
2023-05-10T01:54:20.402Z,100399.84
2023-05-10T01:54:34.370Z,100401.53
2023-05-10T01:54:54.762Z,100395.31
2023-05-10T01:55:09.976Z,100398.84
2023-05-10T01:55:25.157Z,100390.63
2023-05-10T01:55:43.899Z,100399.47
2023-05-10T01:55:57.453Z,100394.97
2023-05-10T01:56:10.404Z,100389.63
2023-05-10T01:56:27.100Z,100394.13
2023-05-10T01:56:40.401Z,100400.31
2023-05-10T01:56:56.936Z,100400.31
2023-05-10T01:57:11.617Z,100399.28
2023-05-10T01:57:27.151Z,100394.97
2023-05-10T01:57:43.160Z,100397.66
2023-05-10T01:58:03.063Z,100391.44
2023-05-10T01:58:17.993Z,100394.13
2023-05-10T01:58:32.563Z,100394.97
2023-05-10T01:58:48.185Z,100391.25
2023-05-10T01:59:01.705Z,100387.59
2023-05-10T01:59:17.516Z,100393.94
2023-05-10T01:59:31.574Z,100389.22
2023-05-10T01:59:46.355Z,100390.06
2023-05-10T02:00:00.455Z,100392.09
2023-05-10T02:00:14.544Z,100384.91
2023-05-10T02:00:28.070Z,100385.75
2023-05-10T02:00:43.456Z,100393.75
2023-05-10T02:00:55.290Z,100394.56
2023-05-10T02:01:09.084Z,100386.38
2023-05-10T02:01:22.841Z,100389.41
2023-05-10T02:01:38.391Z,100389.88
2023-05-10T02:01:52.040Z,100386.38
2023-05-10T02:02:06.730Z,100388.19
2023-05-10T02:02:21.185Z,100391.72
2023-05-10T02:02:37.874Z,100383.72
2023-05-10T02:02:51.572Z,100390.88
2023-05-10T02:03:08.755Z,100392.53
2023-05-10T02:03:24.213Z,100390.69
2023-05-10T02:03:39.025Z,100385.34
2023-05-10T02:03:52.722Z,100392.38
2023-05-10T02:04:07.329Z,100389.88
2023-05-10T02:04:22.845Z,100389.88
2023-05-10T02:04:38.137Z,100392.38
2023-05-10T02:04:51.610Z,100383.72
2023-05-10T02:05:04.872Z,100389.69
2023-05-10T02:05:18.120Z,100388.84
2023-05-10T02:05:32.990Z,100390.69
2023-05-10T02:05:46.879Z,100393.38
2023-05-10T02:05:59.730Z,100386.16
2023-05-10T02:06:13.758Z,100389.47
2023-05-10T02:06:26.956Z,100394.66
2023-05-10T02:06:40.166Z,100383.97
2023-05-10T02:06:53.870Z,100391.16
2023-05-10T02:07:06.626Z,100389.31
2023-05-10T02:07:19.998Z,100391.97
2023-05-10T02:07:33.317Z,100385.81
2023-05-10T02:07:46.150Z,100385.59
2023-05-10T02:07:59.846Z,100383.78
2023-05-10T02:08:12.647Z,100381.09
2023-05-10T02:08:25.726Z,100389.13
2023-05-10T02:08:38.135Z,100384.59
2023-05-10T02:08:52.447Z,100392.63
2023-05-10T02:09:04.593Z,100387.28
2023-05-10T02:09:17.501Z,100387.28
2023-05-10T02:09:31.065Z,100388.09
2023-05-10T02:09:46.405Z,100383.56
2023-05-10T02:09:59.730Z,100386.44
2023-05-10T02:10:12.423Z,100379.25
2023-05-10T02:10:24.224Z,100380.25
2023-05-10T02:10:36.612Z,100381.09
2023-05-10T02:10:50.143Z,100381.94
2023-05-10T02:11:02.886Z,100387.28
2023-05-10T02:11:15.016Z,100381.75
2023-05-10T02:11:29.178Z,100380.25
2023-05-10T02:11:43.815Z,100384.41
2023-05-10T02:11:57.953Z,100385.25
2023-05-10T02:12:10.352Z,100382.94
2023-05-10T02:12:25.053Z,100384.41
2023-05-10T02:12:38.886Z,100388.09
2023-05-10T02:12:52.058Z,100388.09
2023-05-10T02:13:06.575Z,100388.91
2023-05-10T02:13:19.270Z,100378.44
2023-05-10T02:13:34.802Z,100381.94
2023-05-10T02:13:50.017Z,100378.84
2023-05-10T02:14:02.345Z,100385.88
2023-05-10T02:14:16.436Z,100382.34
2023-05-10T02:14:29.747Z,100387.69
2023-05-10T02:14:43.762Z,100378.84
2023-05-10T02:14:57.087Z,100377.22
2023-05-10T02:15:11.448Z,100380.72
2023-05-10T02:15:24.782Z,100380.72
2023-05-10T02:15:39.569Z,100382.34
2023-05-10T02:15:54.011Z,100375.38
2023-05-10T02:16:07.117Z,100380.72
2023-05-10T02:16:22.125Z,100380.72
2023-05-10T02:16:33.875Z,100385.25
2023-05-10T02:16:47.161Z,100385.25
2023-05-10T02:17:00.679Z,100380.72
2023-05-10T02:17:15.156Z,100378.84
2023-05-10T02:17:28.391Z,100378.03
2023-05-10T02:17:41.097Z,100379.88
2023-05-10T02:17:55.693Z,100375.38
2023-05-10T02:18:10.056Z,100378.84
2023-05-10T02:18:24.711Z,100376.19
2023-05-10T02:18:36.936Z,100381.34
2023-05-10T02:18:49.985Z,100379.50
2023-05-10T02:19:03.067Z,100378.50
2023-05-10T02:19:15.592Z,100373.34
2023-05-10T02:19:28.823Z,100381.34
2023-05-10T02:19:44.075Z,100379.50
2023-05-10T02:19:57.365Z,100376.81
2023-05-10T02:20:11.139Z,100376.66
2023-05-10T02:20:24.510Z,100378.50
2023-05-10T02:20:37.242Z,100369.63
2023-05-10T02:20:49.561Z,100370.47
2023-05-10T02:21:02.974Z,100380.13
2023-05-10T02:21:17.767Z,100375.63
2023-05-10T02:21:30.868Z,100372.13
2023-05-10T02:21:42.970Z,100371.94
2023-05-10T02:21:56.164Z,100378.94
2023-05-10T02:22:10.041Z,100373.75
2023-05-10T02:22:23.096Z,100372.75
2023-05-10T02:22:36.674Z,100373.56
2023-05-10T02:22:51.531Z,100377.06
2023-05-10T02:23:05.396Z,100371.94
2023-05-10T02:23:18.546Z,100374.41
2023-05-10T02:23:31.368Z,100375.44
2023-05-10T02:23:44.084Z,100374.41
2023-05-10T02:23:58.073Z,100373.41
2023-05-10T02:24:12.260Z,100378.75
2023-05-10T02:24:26.087Z,100379.75
2023-05-10T02:24:40.495Z,100367.84
2023-05-10T02:24:52.786Z,100373.41
2023-05-10T02:25:05.439Z,100372.38
2023-05-10T02:25:18.911Z,100371.53
2023-05-10T02:25:32.614Z,100375.03
2023-05-10T02:25:46.269Z,100378.53
2023-05-10T02:25:59.725Z,100377.53
2023-05-10T02:26:11.976Z,100374.03
2023-05-10T02:26:25.271Z,100373.81
2023-05-10T02:26:39.039Z,100374.84
2023-05-10T02:26:54.987Z,100366.66
2023-05-10T02:27:07.855Z,100363.97
2023-05-10T02:27:21.424Z,100372.81
2023-05-10T02:27:34.595Z,100365.63
2023-05-10T02:27:48.447Z,100376.31
2023-05-10T02:28:02.579Z,100366.66
2023-05-10T02:28:15.532Z,100376.31
2023-05-10T02:28:28.030Z,100375.50
2023-05-10T02:28:41.784Z,100375.50
2023-05-10T02:28:55.047Z,100371.78
2023-05-10T02:29:08.643Z,100370.97
2023-05-10T02:29:21.279Z,100370.97
2023-05-10T02:29:34.369Z,100376.13
2023-05-10T02:29:47.571Z,100375.91
2023-05-10T02:30:01.514Z,100371.59
2023-05-10T02:30:14.844Z,100380.44
2023-05-10T02:30:27.072Z,100376.78
2023-05-10T02:30:39.751Z,100370.56
2023-05-10T02:30:52.188Z,100374.91
2023-05-10T02:31:04.316Z,100375.91
2023-05-10T02:31:16.893Z,100374.28
2023-05-10T02:31:29.098Z,100373.06
2023-05-10T02:31:41.064Z,100370.56
2023-05-10T02:31:54.208Z,100375.75
2023-05-10T02:32:06.810Z,100370.56
2023-05-10T02:32:20.468Z,100373.88
2023-05-10T02:32:32.460Z,100377.59
2023-05-10T02:32:45.079Z,100374.91
2023-05-10T02:32:57.716Z,100368.75
2023-05-10T02:33:10.153Z,100371.59
2023-05-10T02:33:22.784Z,100372.25
2023-05-10T02:33:35.810Z,100372.25
2023-05-10T02:33:49.935Z,100374.72
2023-05-10T02:34:04.950Z,100372.06
2023-05-10T02:34:16.737Z,100373.88
2023-05-10T02:34:31.044Z,100373.88
2023-05-10T02:34:43.622Z,100374.72
2023-05-10T02:34:56.884Z,100371.22
2023-05-10T02:35:10.654Z,100373.88
2023-05-10T02:35:24.586Z,100373.69
2023-05-10T02:35:38.628Z,100372.06
2023-05-10T02:35:51.930Z,100364.03
2023-05-10T02:36:04.146Z,100375.56
2023-05-10T02:36:17.347Z,100374.72
2023-05-10T02:36:29.959Z,100377.41
2023-05-10T02:36:43.331Z,100374.72
2023-05-10T02:36:56.328Z,100374.72
2023-05-10T02:37:08.288Z,100374.09
2023-05-10T02:37:21.307Z,100372.88
2023-05-10T02:37:35.195Z,100368.53
2023-05-10T02:37:49.452Z,100380.91
2023-05-10T02:38:02.443Z,100374.72